createdAt,value
2018-07-20T00:02:37.392Z,56.22
2018-07-20T00:05:12.975Z,56.07
2018-07-20T00:07:49.219Z,57.20
2018-07-20T00:10:25.671Z,57.20
2018-07-20T00:13:05.449Z,57.23
2018-07-20T00:15:41.540Z,57.81
2018-07-20T00:18:22.145Z,56.92
2018-07-20T00:20:57.179Z,56.71
2018-07-20T00:23:36.120Z,57.51
2018-07-20T00:26:14.325Z,59.60
2018-07-20T00:28:53.319Z,57.79
2018-07-20T00:31:29.362Z,58.80
2018-07-20T00:34:04.002Z,58.73
2018-07-20T00:36:43.573Z,59.59
2018-07-20T00:39:21.250Z,58.87
2018-07-20T00:41:58.353Z,59.18
2018-07-20T00:44:35.136Z,59.35
2018-07-20T00:47:11.173Z,59.96
2018-07-20T00:49:49.505Z,59.72
2018-07-20T00:52:32.995Z,60.34
2018-07-20T00:55:15.805Z,60.72
2018-07-20T00:57:51.416Z,60.57
2018-07-20T01:00:26.235Z,60.67
2018-07-20T01:03:02.741Z,62.01
2018-07-20T01:05:41.629Z,61.22
2018-07-20T01:08:19.426Z,60.56
2018-07-20T01:10:52.827Z,60.68
2018-07-20T01:13:34.203Z,60.73
2018-07-20T01:16:36.804Z,60.29
2018-07-20T01:19:15.098Z,60.64
2018-07-20T01:21:50.950Z,61.42
2018-07-20T01:24:25.859Z,60.47
2018-07-20T01:27:03.385Z,61.28
2018-07-20T01:29:44.258Z,61.26
2018-07-20T01:32:22.546Z,61.44
2018-07-20T01:35:17.216Z,61.15
2018-07-20T01:40:42.744Z,62.61
2018-07-20T01:43:21.608Z,62.05
2018-07-20T01:46:02.482Z,62.75
2018-07-20T01:48:42.199Z,63.45
2018-07-20T01:51:18.017Z,63.71
2018-07-20T01:53:53.830Z,63.91
2018-07-20T01:56:43.610Z,65.67
2018-07-20T02:02:00.951Z,64.33
2018-07-20T02:04:36.126Z,64.99
2018-07-20T02:07:24.053Z,64.00
2018-07-20T02:10:02.779Z,63.39
2018-07-20T02:12:37.706Z,62.09
2018-07-20T02:15:12.539Z,61.52
2018-07-20T02:17:46.464Z,61.78
2018-07-20T02:20:24.012Z,61.38
2018-07-20T02:23:02.937Z,61.04
2018-07-20T02:25:46.160Z,62.58
2018-07-20T02:28:22.324Z,61.07
2018-07-20T02:31:11.234Z,60.80
2018-07-20T02:33:46.116Z,60.42
2018-07-20T02:36:26.199Z,61.83
2018-07-20T02:39:01.815Z,62.89
2018-07-20T02:44:22.458Z,62.52
2018-07-20T02:47:04.543Z,63.41
2018-07-20T02:49:41.169Z,62.74
2018-07-20T02:52:18.610Z,63.34
2018-07-20T02:54:55.913Z,64.42
2018-07-20T02:57:30.682Z,64.77
2018-07-20T03:00:08.585Z,64.44
2018-07-20T03:02:42.775Z,64.68
2018-07-20T03:05:11.601Z,64.85
2018-07-20T03:07:40.171Z,64.62
2018-07-20T03:10:08.804Z,65.80
2018-07-20T03:12:37.445Z,65.39
2018-07-20T03:15:06.247Z,65.42
2018-07-20T03:17:34.835Z,66.13
2018-07-20T03:20:03.462Z,65.70
2018-07-20T03:22:32.056Z,65.46
2018-07-20T03:25:00.778Z,64.55
2018-07-20T03:27:29.454Z,65.96
2018-07-20T03:29:58.286Z,68.09
2018-07-20T03:32:26.961Z,66.10
2018-07-20T03:34:55.566Z,66.53
2018-07-20T03:37:24.314Z,65.32
2018-07-20T03:39:52.824Z,68.67
2018-07-20T03:42:21.565Z,66.71
2018-07-20T03:44:50.199Z,66.02
2018-07-20T03:47:18.772Z,63.69
2018-07-20T03:49:47.530Z,64.33
2018-07-20T03:52:16.218Z,63.78
2018-07-20T03:54:45.092Z,64.96
2018-07-20T03:57:14.176Z,66.30
2018-07-20T03:59:42.767Z,63.30
2018-07-20T04:02:11.414Z,61.79
2018-07-20T04:04:39.997Z,63.10
2018-07-20T04:07:08.697Z,62.17
2018-07-20T04:09:37.288Z,61.56
2018-07-20T04:12:05.803Z,62.34
2018-07-20T04:14:34.333Z,61.83
2018-07-20T04:17:02.844Z,62.29
2018-07-20T04:19:31.519Z,62.86
2018-07-20T04:22:00.110Z,63.29
2018-07-20T04:24:28.677Z,62.16
2018-07-20T04:26:57.229Z,62.10
2018-07-20T04:29:25.877Z,62.48
2018-07-20T04:31:54.646Z,63.82
2018-07-20T04:34:23.375Z,61.35
2018-07-20T04:36:52.013Z,61.65
2018-07-20T04:39:20.606Z,60.91
2018-07-20T04:41:49.273Z,61.17
2018-07-20T04:44:19.029Z,60.70
2018-07-20T04:46:47.894Z,60.71
2018-07-20T04:49:16.554Z,60.17
2018-07-20T04:51:45.176Z,60.76
2018-07-20T04:54:13.847Z,60.65
2018-07-20T04:56:42.382Z,61.35
2018-07-20T04:59:11.048Z,61.96
2018-07-20T05:01:39.732Z,60.70
2018-07-20T05:04:08.423Z,60.44
2018-07-20T05:06:37.200Z,59.89
2018-07-20T05:09:09.040Z,60.04
2018-07-20T05:11:38.213Z,61.33
2018-07-20T05:14:07.071Z,60.66
2018-07-20T05:16:35.803Z,60.77
2018-07-20T05:19:04.526Z,60.22
2018-07-20T05:21:33.231Z,59.60
2018-07-20T05:24:02.528Z,57.98
2018-07-20T05:26:34.977Z,57.18
2018-07-20T05:29:04.126Z,56.87
2018-07-20T05:31:32.957Z,55.20
2018-07-20T05:34:01.759Z,53.88
2018-07-20T05:36:30.503Z,53.81
2018-07-20T05:38:59.275Z,52.11
2018-07-20T05:41:28.099Z,53.45
2018-07-20T05:43:56.759Z,51.31
2018-07-20T05:46:25.416Z,53.11
2018-07-20T05:48:54.182Z,51.12
2018-07-20T05:51:22.872Z,51.94
2018-07-20T05:53:51.984Z,52.57
2018-07-20T05:56:21.142Z,52.29
2018-07-20T05:58:50.034Z,52.18
2018-07-20T06:01:18.697Z,52.12
2018-07-20T06:03:47.378Z,52.20
2018-07-20T06:06:16.040Z,51.55
2018-07-20T06:08:45.039Z,53.12
2018-07-20T06:11:13.645Z,51.42
2018-07-20T06:13:42.300Z,51.56
2018-07-20T06:16:11.136Z,50.02
2018-07-20T06:18:39.959Z,49.00
2018-07-20T06:21:08.787Z,47.67
2018-07-20T06:23:37.940Z,47.58
2018-07-20T06:26:07.124Z,45.33
2018-07-20T06:28:36.186Z,43.51
2018-07-20T06:31:05.035Z,44.10
2018-07-20T06:33:33.767Z,41.95
2018-07-20T06:36:02.375Z,41.15
2018-07-20T06:38:31.234Z,40.00
2018-07-20T06:40:59.996Z,39.23
2018-07-20T06:43:28.658Z,39.94
2018-07-20T06:45:57.259Z,38.09
2018-07-20T06:48:26.325Z,37.73
2018-07-20T06:50:55.336Z,37.60
2018-07-20T06:53:24.565Z,36.67
2018-07-20T06:55:53.475Z,37.41
2018-07-20T06:58:22.210Z,37.78
2018-07-20T07:00:53.293Z,38.53
2018-07-20T07:03:25.925Z,39.24
2018-07-20T07:05:55.026Z,39.30
2018-07-20T07:08:25.079Z,39.00
2018-07-20T07:10:53.664Z,39.69
2018-07-20T07:13:28.674Z,39.75
2018-07-20T07:16:00.612Z,41.45
2018-07-20T07:18:40.353Z,41.18
2018-07-20T07:21:13.182Z,40.52
2018-07-20T07:23:49.429Z,40.08
2018-07-20T07:26:23.564Z,40.86
2018-07-20T07:29:02.417Z,39.97
2018-07-20T07:31:36.380Z,39.07
2018-07-20T07:34:08.807Z,39.67
2018-07-20T07:36:39.631Z,40.03
2018-07-20T07:39:13.453Z,40.40
2018-07-20T07:41:46.849Z,38.57
2018-07-20T07:44:23.881Z,38.11
2018-07-20T07:46:55.431Z,38.57
2018-07-20T07:49:28.327Z,38.92
2018-07-20T07:52:02.150Z,38.25
2018-07-20T07:54:37.583Z,38.09
2018-07-20T07:57:15.737Z,37.10
2018-07-20T08:00:14.984Z,37.53
2018-07-20T08:03:10.630Z,36.78
2018-07-20T08:05:41.103Z,35.45
2018-07-20T08:08:09.653Z,36.06
2018-07-20T08:10:38.504Z,36.22
2018-07-20T08:13:07.294Z,35.37
2018-07-20T08:15:36.039Z,34.88
2018-07-20T08:18:04.755Z,34.52
2018-07-20T08:20:33.629Z,34.67
2018-07-20T08:23:02.479Z,34.79
2018-07-20T08:25:31.021Z,35.07
2018-07-20T08:27:59.747Z,33.36
2018-07-20T08:30:28.604Z,33.40
2018-07-20T08:32:57.710Z,32.35
2018-07-20T08:35:26.426Z,32.25
2018-07-20T08:37:54.856Z,33.70
2018-07-20T08:40:23.543Z,32.58
2018-07-20T08:42:52.153Z,33.45
2018-07-20T08:45:20.741Z,30.75
2018-07-20T08:47:49.440Z,32.40
2018-07-20T08:50:18.032Z,31.51
2018-07-20T08:52:46.797Z,32.37
2018-07-20T08:55:15.440Z,32.34
2018-07-20T08:57:44.011Z,32.21
2018-07-20T09:00:12.703Z,32.57
2018-07-20T09:02:41.293Z,31.42
2018-07-20T09:05:09.957Z,31.38
2018-07-20T09:07:38.634Z,31.94
2018-07-20T09:10:07.244Z,31.45
2018-07-20T09:12:35.855Z,31.18
2018-07-20T09:15:04.780Z,30.72
2018-07-20T09:17:33.374Z,31.49
2018-07-20T09:20:01.923Z,30.94
2018-07-20T09:22:30.610Z,30.16
2018-07-20T09:24:59.264Z,30.20
2018-07-20T09:27:28.097Z,30.52
2018-07-20T09:29:56.646Z,29.29
2018-07-20T09:32:25.221Z,28.03
2018-07-20T09:34:53.995Z,28.78
2018-07-20T09:37:22.571Z,29.46
2018-07-20T09:39:51.131Z,29.22
2018-07-20T09:42:19.818Z,27.71
2018-07-20T09:44:48.487Z,28.83
2018-07-20T09:47:17.033Z,28.71
2018-07-20T09:49:45.669Z,27.96
2018-07-20T09:52:14.395Z,26.95
2018-07-20T09:54:43.110Z,27.56
2018-07-20T09:57:11.839Z,28.66
2018-07-20T09:59:40.457Z,27.64
2018-07-20T10:02:09.022Z,27.08
2018-07-20T10:04:37.761Z,25.52
2018-07-20T10:07:06.320Z,25.54
2018-07-20T10:09:36.176Z,26.40
2018-07-20T10:12:04.858Z,26.90
2018-07-20T10:14:33.349Z,26.82
2018-07-20T10:17:01.994Z,27.31
2018-07-20T10:19:30.642Z,27.13
2018-07-20T10:21:59.328Z,28.08
2018-07-20T10:24:27.856Z,27.28
2018-07-20T10:26:56.539Z,26.58
2018-07-20T10:29:28.533Z,26.61
2018-07-20T10:32:33.090Z,26.35
2018-07-20T10:35:02.709Z,26.97
2018-07-20T10:37:31.284Z,27.01
2018-07-20T10:39:59.962Z,26.05
2018-07-20T10:42:28.507Z,25.90
2018-07-20T10:44:57.055Z,26.31
2018-07-20T10:47:25.690Z,25.85
2018-07-20T10:49:54.396Z,26.59
2018-07-20T10:52:22.995Z,26.10
2018-07-20T10:54:51.648Z,26.03
2018-07-20T10:57:20.480Z,26.01
2018-07-20T10:59:49.289Z,26.87
2018-07-20T11:02:19.169Z,26.40
2018-07-20T11:04:47.798Z,26.01
2018-07-20T11:07:16.479Z,25.96
2018-07-20T11:09:45.185Z,24.80
2018-07-20T11:12:13.740Z,25.59
2018-07-20T11:14:42.352Z,25.37
2018-07-20T11:17:10.910Z,26.37
2018-07-20T11:19:39.667Z,24.57
2018-07-20T11:22:08.874Z,24.72
2018-07-20T11:24:37.546Z,25.58
2018-07-20T11:27:06.178Z,26.06
2018-07-20T11:29:34.715Z,24.05
2018-07-20T11:32:03.331Z,23.96
2018-07-20T11:34:32.037Z,23.39
2018-07-20T11:37:00.596Z,23.70
2018-07-20T11:39:29.123Z,24.48
2018-07-20T11:41:57.912Z,22.52
2018-07-20T11:44:26.517Z,22.02
2018-07-20T11:46:55.066Z,20.71
2018-07-20T11:49:23.765Z,18.45
2018-07-20T11:51:52.332Z,15.29
2018-07-20T11:54:20.938Z,18.17
2018-07-20T11:56:49.587Z,14.68
2018-07-20T11:59:18.268Z,13.12
2018-07-20T12:01:46.862Z,11.72
2018-07-20T12:04:15.489Z,10.17
2018-07-20T12:06:44.060Z,8.93
2018-07-20T12:09:13.258Z,10.47
2018-07-20T12:11:42.054Z,10.00
2018-07-20T12:14:10.754Z,10.86
2018-07-20T12:16:39.575Z,9.75
2018-07-20T12:19:08.165Z,8.32
2018-07-20T12:21:36.807Z,7.09
2018-07-20T12:24:05.484Z,7.79
2018-07-20T12:26:34.105Z,8.42
2018-07-20T12:29:02.722Z,6.90
2018-07-20T12:31:31.249Z,7.72
2018-07-20T12:33:59.783Z,10.46
2018-07-20T12:36:28.267Z,9.34
2018-07-20T12:38:56.789Z,9.40
2018-07-20T12:41:25.399Z,8.72
2018-07-20T12:43:56.180Z,6.45
2018-07-20T12:46:25.866Z,7.43
2018-07-20T12:48:54.333Z,8.46
2018-07-20T12:51:22.909Z,8.15
2018-07-20T12:53:51.749Z,6.41
2018-07-20T12:56:20.410Z,6.47
2018-07-20T12:58:49.180Z,6.19
2018-07-20T13:01:17.720Z,4.90
2018-07-20T13:03:46.446Z,4.48
2018-07-20T13:06:15.026Z,3.33
2018-07-20T13:08:43.660Z,5.98
2018-07-20T13:11:12.362Z,7.04
2018-07-20T13:13:41.066Z,8.83
2018-07-20T13:16:09.695Z,10.17
2018-07-20T13:18:38.271Z,6.41
2018-07-20T13:21:07.101Z,6.93
2018-07-20T13:23:35.824Z,7.04
2018-07-20T13:26:04.578Z,6.12
2018-07-20T13:28:33.590Z,6.08
2018-07-20T13:31:02.219Z,5.62
2018-07-20T13:33:30.933Z,6.89
2018-07-20T13:35:59.726Z,5.53
2018-07-20T13:38:28.579Z,3.79
2018-07-20T13:40:57.259Z,5.50
2018-07-20T13:43:25.974Z,5.31
2018-07-20T13:45:54.601Z,4.27
2018-07-20T13:48:23.285Z,6.09
2018-07-20T13:50:51.955Z,6.82
2018-07-20T13:53:20.759Z,7.54
2018-07-20T13:55:49.395Z,7.37
2018-07-20T13:58:18.027Z,4.89
2018-07-20T14:00:46.872Z,5.66
2018-07-20T14:03:15.412Z,8.46
2018-07-20T14:05:43.980Z,10.45
2018-07-20T14:08:16.310Z,9.98
2018-07-20T14:10:45.153Z,9.31
2018-07-20T14:13:14.911Z,7.11
2018-07-20T14:15:43.705Z,5.40
2018-07-20T14:18:12.564Z,10.08
2018-07-20T14:20:41.624Z,7.22
2018-07-20T14:23:10.515Z,10.06
2018-07-20T14:25:39.120Z,11.38
2018-07-20T14:28:08.158Z,9.96
2018-07-20T14:30:36.774Z,7.41
2018-07-20T14:33:05.689Z,7.90
2018-07-20T14:35:34.428Z,8.58
2018-07-20T14:38:04.783Z,12.56
2018-07-20T14:40:33.582Z,10.69
2018-07-20T14:43:02.263Z,10.38
2018-07-20T14:45:30.829Z,12.05
2018-07-20T14:47:59.545Z,11.43
2018-07-20T14:50:28.300Z,9.53
2018-07-20T14:52:56.951Z,9.63
2018-07-20T14:55:25.798Z,11.05
2018-07-20T14:57:54.786Z,10.95
2018-07-20T15:00:23.489Z,11.86
2018-07-20T15:02:52.142Z,15.12
2018-07-20T15:05:20.794Z,15.17
2018-07-20T15:07:49.548Z,16.95
2018-07-20T15:10:18.311Z,16.52
2018-07-20T15:12:47.189Z,16.74
2018-07-20T15:15:15.898Z,16.48
2018-07-20T15:17:44.479Z,17.45
2018-07-20T15:20:13.198Z,18.13
2018-07-20T15:22:41.805Z,18.54
2018-07-20T15:25:10.703Z,19.20
2018-07-20T15:27:39.444Z,19.64
2018-07-20T15:30:08.292Z,18.89
2018-07-20T15:32:37.145Z,19.08
2018-07-20T15:35:05.909Z,19.34
2018-07-20T15:37:34.595Z,19.89
2018-07-20T15:40:03.188Z,21.11
2018-07-20T15:42:32.015Z,22.19
2018-07-20T15:45:00.614Z,22.44
2018-07-20T15:47:29.346Z,23.32
2018-07-20T15:49:57.872Z,23.17
2018-07-20T15:54:55.306Z,23.27
2018-07-20T15:57:23.966Z,24.37
2018-07-20T15:59:52.731Z,23.68
2018-07-20T16:02:21.218Z,24.34
2018-07-20T16:04:49.805Z,24.22
2018-07-20T16:07:18.577Z,24.42
2018-07-20T16:09:47.148Z,24.79
2018-07-20T16:12:15.715Z,25.61
2018-07-20T16:14:44.295Z,25.28
2018-07-20T16:17:13.093Z,25.89
2018-07-20T16:19:42.584Z,28.81
2018-07-20T16:22:11.141Z,30.04
2018-07-20T16:24:39.791Z,33.58
2018-07-20T16:27:08.691Z,41.96
2018-07-20T16:29:37.316Z,49.14
2018-07-20T16:32:06.323Z,45.05
2018-07-20T16:34:34.984Z,43.74
2018-07-20T16:37:03.848Z,42.05
2018-07-20T16:39:32.786Z,40.94
2018-07-20T16:42:01.636Z,39.15
2018-07-20T16:44:30.502Z,37.74
2018-07-20T16:46:59.278Z,35.92
2018-07-20T16:49:27.887Z,35.13
2018-07-20T16:51:56.741Z,35.39
2018-07-20T16:54:25.363Z,33.04
2018-07-20T16:56:54.139Z,33.05
2018-07-20T16:59:22.709Z,33.26
2018-07-20T17:01:51.505Z,31.63
2018-07-20T17:04:20.258Z,31.71
2018-07-20T17:06:48.984Z,33.43
2018-07-20T17:09:17.723Z,34.00
2018-07-20T17:11:46.409Z,35.91
2018-07-20T17:14:14.982Z,35.10
2018-07-20T17:16:43.761Z,36.54
2018-07-20T17:19:12.468Z,36.19
2018-07-20T17:21:41.148Z,35.73
2018-07-20T17:24:10.404Z,36.90
2018-07-20T17:26:39.421Z,35.76
2018-07-20T17:29:08.255Z,36.84
2018-07-20T17:31:36.835Z,38.02
2018-07-20T17:34:05.440Z,37.82
2018-07-20T17:36:35.266Z,37.42
2018-07-20T17:39:04.818Z,38.33
2018-07-20T17:41:33.801Z,38.09
2018-07-20T17:44:02.497Z,38.75
2018-07-20T17:46:31.377Z,39.28
2018-07-20T17:49:00.246Z,39.45
2018-07-20T17:51:28.900Z,39.77
2018-07-20T17:53:57.585Z,39.77
2018-07-20T17:56:26.519Z,40.35
2018-07-20T17:58:55.367Z,41.33
2018-07-20T18:01:24.134Z,43.17
2018-07-20T18:03:52.736Z,42.72
2018-07-20T18:06:21.442Z,42.44
2018-07-20T18:08:50.190Z,43.02
2018-07-20T18:11:18.907Z,43.70
2018-07-20T18:13:47.737Z,44.91
2018-07-20T18:16:16.471Z,45.74
2018-07-20T18:18:45.333Z,45.83
2018-07-20T18:21:14.044Z,46.56
2018-07-20T18:23:42.779Z,46.60
2018-07-20T18:26:11.476Z,47.32
2018-07-20T18:28:40.024Z,48.42
2018-07-20T18:31:08.704Z,48.99
2018-07-20T18:33:37.522Z,49.75
2018-07-20T18:36:06.265Z,49.47
2018-07-20T18:38:35.173Z,49.22
2018-07-20T18:41:03.802Z,49.80
2018-07-20T18:43:32.574Z,50.29
2018-07-20T18:46:01.396Z,50.78
2018-07-20T18:48:30.249Z,50.76
2018-07-20T18:50:59.255Z,51.13
2018-07-20T18:53:28.222Z,51.05
2018-07-20T18:55:57.039Z,51.45
2018-07-20T18:58:25.721Z,51.48
2018-07-20T19:00:54.533Z,52.24
2018-07-20T19:03:23.290Z,51.57
2018-07-20T19:05:52.029Z,52.95
2018-07-20T19:08:20.723Z,51.78
2018-07-20T19:10:49.419Z,52.29
2018-07-20T19:13:18.742Z,52.86
2018-07-20T19:15:47.357Z,52.71
2018-07-20T19:18:16.245Z,51.33
2018-07-20T19:20:45.110Z,51.33
2018-07-20T19:23:17.695Z,50.77
2018-07-20T19:25:46.604Z,51.04
2018-07-20T19:28:15.407Z,51.47
2018-07-20T19:30:44.031Z,52.33
2018-07-20T19:33:12.779Z,52.23
2018-07-20T19:35:41.482Z,54.05
2018-07-20T19:38:10.214Z,53.66
2018-07-20T19:40:39.942Z,53.50
2018-07-20T19:44:37.872Z,53.61
2018-07-20T19:47:06.654Z,53.29
2018-07-20T19:49:35.536Z,53.36
2018-07-20T19:52:04.349Z,52.72
2018-07-20T19:54:33.185Z,52.92
2018-07-20T19:57:01.991Z,53.77
2018-07-20T19:59:30.764Z,53.19
2018-07-20T20:01:59.635Z,54.02
2018-07-20T20:04:28.515Z,54.53
2018-07-20T20:06:57.201Z,54.32
2018-07-20T20:09:25.857Z,54.38
2018-07-20T20:11:54.449Z,54.64
2018-07-20T20:14:23.112Z,55.01
2018-07-20T20:16:51.918Z,55.12
2018-07-20T20:19:20.703Z,55.40
2018-07-20T20:21:49.487Z,55.62
2018-07-20T20:24:18.253Z,56.66
2018-07-20T20:26:47.050Z,55.60
2018-07-20T20:29:16.741Z,54.46
2018-07-20T20:31:45.376Z,55.47
2018-07-20T20:34:14.133Z,55.33
2018-07-20T20:36:42.697Z,56.18
2018-07-20T20:39:12.844Z,56.02
2018-07-20T20:41:41.714Z,55.63
2018-07-20T20:44:10.881Z,55.96
2018-07-20T20:46:40.016Z,57.42
2018-07-20T20:49:08.825Z,55.89
2018-07-20T20:51:37.388Z,56.61
2018-07-20T20:54:06.821Z,56.07
2018-07-20T20:56:35.419Z,56.31
2018-07-20T20:59:04.165Z,56.10
2018-07-20T21:01:32.883Z,55.72
2018-07-20T21:04:01.652Z,56.15
2018-07-20T21:06:30.249Z,56.03
2018-07-20T21:08:58.973Z,56.05
2018-07-20T21:11:27.587Z,56.22
2018-07-20T21:13:56.243Z,56.88
2018-07-20T21:16:24.872Z,56.86
2018-07-20T21:18:53.469Z,58.29
2018-07-20T21:21:22.023Z,57.13
2018-07-20T21:23:50.737Z,57.32
2018-07-20T21:26:19.466Z,58.01
2018-07-20T21:28:48.100Z,58.08
2018-07-20T21:31:16.996Z,58.21
2018-07-20T21:33:45.884Z,58.95
2018-07-20T21:36:14.619Z,59.76
2018-07-20T21:38:43.528Z,59.65
2018-07-20T21:41:12.421Z,60.55
2018-07-20T21:43:41.140Z,60.19
2018-07-20T21:46:09.941Z,60.61
2018-07-20T21:48:38.549Z,61.12
2018-07-20T21:51:07.227Z,61.47
2018-07-20T21:53:35.916Z,62.51
2018-07-20T21:56:04.751Z,62.02
2018-07-20T21:58:33.411Z,63.55
2018-07-20T22:01:03.272Z,63.40
2018-07-20T22:03:31.878Z,63.39
2018-07-20T22:06:00.508Z,63.41
2018-07-20T22:08:29.231Z,64.40
2018-07-20T22:10:57.865Z,65.68
2018-07-20T22:13:26.473Z,65.90
2018-07-20T22:15:55.050Z,65.33
2018-07-20T22:18:23.653Z,66.03
2018-07-20T22:20:52.169Z,65.30
2018-07-20T22:23:20.800Z,65.93
2018-07-20T22:25:49.709Z,66.52
2018-07-20T22:28:18.325Z,66.82
2018-07-20T22:30:46.965Z,66.34
2018-07-20T22:33:15.695Z,67.05
2018-07-20T22:35:44.468Z,68.23
2018-07-20T22:38:12.992Z,68.63
2018-07-20T22:40:41.856Z,69.34
2018-07-20T22:43:10.478Z,69.78
2018-07-20T22:45:39.154Z,70.43
2018-07-20T22:48:07.977Z,70.87
2018-07-20T22:50:36.563Z,71.92
2018-07-20T22:53:05.361Z,73.35
2018-07-20T22:55:33.928Z,73.19
2018-07-20T22:58:02.515Z,72.53
2018-07-20T23:00:31.238Z,72.61
2018-07-20T23:03:00.011Z,72.54
2018-07-20T23:05:28.756Z,73.37
2018-07-20T23:07:57.309Z,73.15
2018-07-20T23:10:25.837Z,72.05
2018-07-20T23:12:54.741Z,71.50
2018-07-20T23:15:23.522Z,71.57
2018-07-20T23:17:52.317Z,72.47
2018-07-20T23:20:21.093Z,72.30
2018-07-20T23:22:49.788Z,73.21
2018-07-20T23:25:18.579Z,73.56
2018-07-20T23:27:47.292Z,74.31
2018-07-20T23:30:16.007Z,74.68
2018-07-20T23:32:44.602Z,74.99
2018-07-20T23:35:13.139Z,75.35
2018-07-20T23:37:43.558Z,75.57
2018-07-20T23:40:12.290Z,75.76
2018-07-20T23:42:40.921Z,76.08
2018-07-20T23:45:09.712Z,76.83
2018-07-20T23:47:38.611Z,77.46
2018-07-20T23:50:07.353Z,77.74
2018-07-20T23:52:38.585Z,77.93
2018-07-20T23:55:07.666Z,78.63
2018-07-20T23:57:36.380Z,79.35
